HALF-HOURLY OBSERVATIONS INDEX

001

Kimberley - north

DOONGAN ASA

Site: 001036
Alt: 383.5m
126km SSW of KALUMBURU


  Time     Wind        Temp  DP   Baro     Rain since   Rain past  Vis(m), Cloud(base in m), Weather
  local        km/h                         9am  last   hr   10m    
Mon 08:00  ------/--- --------  1011.0   ----  ----  ----  ----   ----- 
Mon 08:30  ------/--- --------  1011.1   ----  ----  ----  ----   ----- 
Mon 09:00  ------/--- --------  1011.4   ----  ----  ----  ----   ----- 
Mon 09:30  ------/--- --------  1011.2   ----  ----  ----  ----   ----- 
Mon 10:00  ------/--- --------  1011.0   ----  ----  ----  ----   ----- 
Mon 10:30  ------/--- --------  1010.7   ----  ----  ----  ----   ----- 
Mon 11:00  ------/--- --------  1010.3   ----  ----  ----  ----   ----- 
Mon 11:30  ------/--- --------  1009.9   ----  ----  ----  ----   ----- 
Mon 12:00  ------/--- --------  1009.3   ----  ----  ----  ----   ----- 
Mon 12:30  ------/--- --------  1008.8   ----  ----  ----  ----   ----- 
Mon 13:00  ------/--- --------  1008.3   ----  ----  ----  ----   ----- 
Mon 13:30  ------/--- --------  1007.7   ----   0.0   0.0  ----   ----- 

KALUMBURU

Site: 001019
Alt: 23.0m
0.0km ESE of KALUMBURU


  Time     Wind        Temp  DP   Baro     Rain since   Rain past  Vis(m), Cloud(base in m), Weather
  local        km/h                         9am  last   hr   10m    
Mon 08:00    S  9/ 13  30.0 23.4  1007.9    0.0   0.0   0.0   0.0   ----- 
Mon 08:30    S  7/ 13  31.2 24.1  1008.0    0.0   0.0   0.0   0.0   ----- 
Mon 09:00    S 11/ 15  32.1 23.3  1007.9    0.0   0.0   0.0   0.0   ----- 
Mon 09:30  SSE  9/ 15  32.5 24.3  1007.8    0.0   0.0   0.0   0.0   ----- 
Mon 10:00    S  9/ 11  33.9 26.1  1007.5    0.0   0.0   0.0   0.0   ----- 
Mon 10:30   SE  9/ 13  35.2 25.4  1007.5    0.0   0.0   0.0   0.0   ----- 
Mon 11:00   SW  6/ 11  36.2 26.0  1007.0    0.0   0.0   0.0   0.0   ----- 
Mon 11:30   SE  9/ 13  36.5 24.4  1006.6    0.0   0.0   0.0   0.0   ----- 
Mon 12:00  ESE  9/ 13  36.4 24.9  1006.2    0.0   0.0   0.0   0.0   ----- 
Mon 12:30    S  9/ 13  36.5 24.7  1006.0    0.0   0.0   0.0   0.0   ----- 
Mon 13:00    S  7/ 11  36.6 24.5  1005.5    0.0   0.0   0.0   0.0   ----- 
Mon 13:30    E  7/ 15  35.5 25.1  1005.1    0.0   0.0   0.0   0.0   ----- 

TROUGHTON ISLAND

Site: 001007
Alt: 6.0m
80km NW of KALUMBURU


  Time     Wind        Temp  DP   Baro     Rain since   Rain past  Vis(m), Cloud(base in m), Weather
  local        km/h                         9am  last   hr   10m    
Mon 08:00    S  7/  9  29.9 26.3  1008.3    0.0   0.0   0.0   0.0   ----- 
Mon 08:30   SW  6/  7  30.2 26.6  1008.3    0.0   0.0   0.0   0.0   ----- 
Mon 09:00  SSE  7/  9  30.6 26.3  1008.1    0.0   0.0   0.0   0.0   ----- 
Mon 09:30  SSE  6/  7  31.1 25.9  1008.2    0.0   0.0   0.0   0.0   ----- 
Mon 10:00  WSW  7/  9  31.0 26.7  1008.3    0.0   0.0   0.0   0.0   ----- 
Mon 10:30  SSW 11/ 15  31.0 26.7  1008.1    0.0   0.0   0.0   0.0   ----- 
Mon 11:00  SSW 11/ 15  31.2 26.9  1007.7    0.0   0.0   0.0   0.0   ----- 
Mon 11:30   SW 19/ 20  31.3 27.2  1007.3    0.0   0.0   0.0   0.0   ----- 
Mon 12:00   SW 19/ 22  31.5 27.6  1006.8    0.0   0.0   0.0   0.0   ----- 
Mon 12:30   SW 17/ 20  31.8 28.1  1006.5    0.0   0.0   0.0   0.0   ----- 
Mon 13:00   SW 15/ 17  32.4 28.5  1006.4    0.0   0.0   0.0   0.0   ----- 
Mon 13:30  WSW 13/ 17  31.4 27.9  1006.1    0.0   0.0   0.0   0.0   ----- 

TRUSCOTT

Site: 001020
Alt: 51.0m
36km NW of KALUMBURU


  Time     Wind        Temp  DP   Baro     Rain since   Rain past  Vis(m), Cloud(base in m), Weather
  local        km/h                         9am  last   hr   10m    
Mon 08:00   SE  4/  9  30.7 22.3  1007.9    0.0   0.0   0.0   0.0   10000 
Mon 08:30   NE  6/  7  31.1 23.7  1008.0    0.0   0.0   0.0   0.0   10000 
Mon 09:00  ENE  6/  9  31.7 24.0  1008.0    0.0   0.0   0.0   0.0   10000 
Mon 09:30   SE  6/  9  32.4 23.6  1007.8    0.0   0.0   0.0   0.0   10000 
Mon 10:00  ESE  2/  6  33.6 23.9  1007.8    0.0   0.0   0.0   0.0   10000 
Mon 10:30    E  7/ 15  33.5 24.7  1007.7    0.0   0.0   0.0   0.0   10000 
Mon 11:00  NNW 11/ 28  33.1 24.6  1007.2    0.0   0.0   0.0   0.0   10000 
Mon 11:30    W 17/ 22  33.8 24.9  1006.8    0.0   0.0   0.0   0.0   10000 
Mon 12:00  WNW 13/ 17  32.9 23.8  1006.5    0.0   0.0   0.0   0.0   10000 
Mon 12:30    W  9/ 13  33.4 24.3  1006.2    0.0   0.0   0.0   0.0   10000 
Mon 13:00  WNW  9/ 13  33.4 24.6  1006.0    0.0   0.0   0.0   0.0   10000 
Mon 13:30  WNW 11/ 19  34.4 25.5  1005.5    0.0   0.0   0.0   0.0   10000 

WYNDHAM AERO

Site: 001006
Alt: 3.8m
4km SE of WYNDHAM


  Time     Wind        Temp  DP   Baro     Rain since   Rain past  Vis(m), Cloud(base in m), Weather
  local        km/h                         9am  last   hr   10m    
Mon 08:00  ESE  9/ 11  33.0 23.9  1008.1    0.0   0.0   0.0   0.0   ----- 
Mon 08:30  ESE 17/ 20  33.8 23.8  1008.0    0.0   0.0   0.0   0.0   ----- 
Mon 09:00   SE 15/ 19  33.9 24.2  1007.9    0.0   0.0   0.0   0.0   ----- 
Mon 09:30   SE 13/ 15  34.9 24.8  1007.6    0.0   0.0   0.0   0.0   ----- 
Mon 10:00  ESE 17/ 26  35.7 24.3  1007.4    0.0   0.0   0.0   0.0   ----- 
Mon 10:30  ESE 15/ 20  35.3 24.6  1007.1    0.0   0.0   0.0   0.0   ----- 
Mon 11:00  ESE 15/ 20  36.1 24.3  1006.7    0.0   0.0   0.0   0.0   ----- 
Mon 11:30  ESE 15/ 24  36.2 24.4  1006.5    0.0   0.0   0.0   0.0   ----- 
Mon 12:00  ESE 13/ 17  36.3 24.9  1006.1    0.0   0.0   0.0   0.0   ----- 
Mon 12:30    E  9/ 17  36.9 24.4  1005.7    0.0   0.0   0.0   0.0   ----- 
Mon 13:00    E 13/ 20  37.3 24.4  1005.1    0.0   0.0   0.0   0.0   ----- 
Mon 13:30  ESE 17/ 24  37.3 22.6  1004.2    0.0   0.0   0.0   0.0   -----